createdAt,value
2023-01-25T00:02:20.131Z,14.60
2023-01-25T00:04:47.719Z,10.82
2023-01-25T00:07:15.249Z,15.93
2023-01-25T00:09:42.979Z,15.75
2023-01-25T00:12:11.884Z,15.60
2023-01-25T00:14:39.611Z,15.07
2023-01-25T00:17:07.288Z,13.25
2023-01-25T00:19:34.980Z,12.68
2023-01-25T00:22:03.748Z,13.63
2023-01-25T00:24:31.246Z,11.85
2023-01-25T00:26:58.760Z,13.15
2023-01-25T00:29:27.704Z,11.43
2023-01-25T00:32:00.304Z,12.52
2023-01-25T00:34:46.746Z,13.88
2023-01-25T00:37:20.438Z,13.43
2023-01-25T00:39:48.035Z,12.63
2023-01-25T00:42:17.207Z,12.45
2023-01-25T00:44:46.513Z,12.00
2023-01-25T00:47:14.343Z,11.23
2023-01-25T00:49:43.367Z,11.73
2023-01-25T00:52:11.137Z,12.05
2023-01-25T00:54:38.651Z,11.98
2023-01-25T00:57:07.064Z,12.00
2023-01-25T00:59:34.583Z,12.05
2023-01-25T01:02:04.041Z,12.68
2023-01-25T01:04:31.860Z,12.77
2023-01-25T01:06:59.661Z,13.13
2023-01-25T01:09:27.459Z,12.30
2023-01-25T01:11:55.156Z,12.23
2023-01-25T01:14:23.869Z,12.90
2023-01-25T01:16:51.406Z,13.75
2023-01-25T01:19:20.473Z,12.95
2023-01-25T01:21:48.069Z,12.55
2023-01-25T01:24:15.840Z,12.95
2023-01-25T01:26:43.354Z,14.00
2023-01-25T01:29:10.887Z,14.18
2023-01-25T01:31:38.492Z,13.25
2023-01-25T01:34:06.045Z,13.15
2023-01-25T01:36:35.029Z,13.65
2023-01-25T01:39:02.815Z,14.57
2023-01-25T01:41:30.322Z,14.93
2023-01-25T01:43:57.823Z,13.68
2023-01-25T01:46:29.771Z,13.70
2023-01-25T01:48:59.961Z,13.40
2023-01-25T01:51:40.665Z,14.80
2023-01-25T01:54:11.478Z,15.07
2023-01-25T01:56:41.713Z,15.88
2023-01-25T01:59:10.555Z,15.70
2023-01-25T02:01:38.135Z,14.63
2023-01-25T02:04:07.177Z,15.10
2023-01-25T02:06:41.556Z,13.23
2023-01-25T02:09:09.052Z,13.85
2023-01-25T02:11:36.946Z,13.57
2023-01-25T02:14:05.061Z,15.25
2023-01-25T02:16:32.572Z,13.18
2023-01-25T02:19:02.155Z,13.13
2023-01-25T02:21:34.974Z,14.90
2023-01-25T02:24:07.649Z,11.07
2023-01-25T02:26:36.536Z,13.63
2023-01-25T02:29:05.986Z,15.40
2023-01-25T02:31:33.799Z,17.45
2023-01-25T02:34:01.587Z,18.10
2023-01-25T02:36:31.073Z,16.25
2023-01-25T02:39:01.230Z,17.52
2023-01-25T02:41:33.266Z,17.55
2023-01-25T02:44:04.181Z,17.20
2023-01-25T02:46:33.695Z,19.85
2023-01-25T02:49:02.158Z,18.75
2023-01-25T02:51:31.452Z,17.02
2023-01-25T02:53:59.433Z,19.08
2023-01-25T02:56:27.017Z,17.70
2023-01-25T02:58:54.554Z,17.98
2023-01-25T03:01:23.427Z,18.17
2023-01-25T03:03:50.975Z,20.48
2023-01-25T03:06:18.478Z,19.60
2023-01-25T03:08:45.996Z,18.17
2023-01-25T03:11:13.468Z,19.30
2023-01-25T03:13:40.950Z,18.70
2023-01-25T03:16:10.698Z,19.55
2023-01-25T03:18:40.140Z,16.67
2023-01-25T03:21:09.533Z,17.85
2023-01-25T03:23:37.619Z,19.65
2023-01-25T03:26:06.757Z,18.40
2023-01-25T03:28:34.242Z,19.90
2023-01-25T03:31:01.916Z,21.08
2023-01-25T03:33:29.467Z,20.65
2023-01-25T03:35:58.728Z,21.83
2023-01-25T03:38:26.919Z,17.40
2023-01-25T03:40:54.445Z,19.45
2023-01-25T03:43:22.345Z,17.70
2023-01-25T03:45:53.088Z,18.00
2023-01-25T03:48:20.990Z,18.00
2023-01-25T03:50:52.017Z,16.30
2023-01-25T03:53:27.539Z,17.50
2023-01-25T03:55:56.072Z,16.55
2023-01-25T03:58:23.721Z,17.33
2023-01-25T04:00:51.327Z,17.17
2023-01-25T04:03:19.893Z,19.75
2023-01-25T04:05:47.847Z,18.40
2023-01-25T04:08:15.455Z,16.42
2023-01-25T04:10:44.286Z,19.80
2023-01-25T04:13:11.748Z,19.00
2023-01-25T04:15:39.249Z,18.52
2023-01-25T04:18:06.795Z,21.55
2023-01-25T04:20:34.318Z,19.65
2023-01-25T04:23:01.812Z,19.70
2023-01-25T04:25:29.332Z,20.20
2023-01-25T04:27:58.230Z,21.48
2023-01-25T04:30:25.865Z,23.10
2023-01-25T04:32:53.717Z,20.15
2023-01-25T04:35:21.643Z,18.08
2023-01-25T04:37:54.511Z,18.00
2023-01-25T04:40:22.056Z,16.75
2023-01-25T04:42:49.558Z,20.00
2023-01-25T04:45:18.496Z,18.15
2023-01-25T04:47:45.965Z,17.23
2023-01-25T04:50:13.435Z,20.13
2023-01-25T04:52:40.907Z,18.98
2023-01-25T04:55:09.237Z,18.95
2023-01-25T04:57:36.887Z,27.80
2023-01-25T05:00:04.935Z,23.13
2023-01-25T05:02:33.893Z,21.73
2023-01-25T05:05:01.555Z,20.17
2023-01-25T05:07:29.028Z,20.67
2023-01-25T05:09:56.485Z,22.13
2023-01-25T05:12:24.035Z,22.25
2023-01-25T05:14:51.512Z,20.48
2023-01-25T05:17:19.018Z,20.52
2023-01-25T05:19:47.886Z,23.00
2023-01-25T05:22:15.990Z,22.20
2023-01-25T05:24:45.051Z,22.02
2023-01-25T05:27:13.180Z,20.25
2023-01-25T05:29:42.039Z,24.13
2023-01-25T05:32:11.111Z,28.55
2023-01-25T05:34:38.845Z,24.63
2023-01-25T05:37:09.754Z,27.35
2023-01-25T05:39:37.459Z,24.77
2023-01-25T05:42:05.273Z,24.77
2023-01-25T05:44:32.774Z,24.98
2023-01-25T05:47:00.250Z,24.70
2023-01-25T05:49:27.754Z,23.73
2023-01-25T05:51:55.222Z,24.30
2023-01-25T05:54:23.993Z,27.35
2023-01-25T05:56:51.478Z,26.02
2023-01-25T05:59:19.194Z,25.90
2023-01-25T06:01:46.892Z,26.63
2023-01-25T06:04:15.570Z,26.00
2023-01-25T06:06:43.369Z,22.27
2023-01-25T06:09:11.693Z,25.00
2023-01-25T06:11:40.817Z,22.33
2023-01-25T06:14:08.283Z,26.05
2023-01-25T06:16:35.739Z,24.15
2023-01-25T06:19:03.220Z,22.63
2023-01-25T06:21:30.703Z,25.83
2023-01-25T06:23:58.203Z,31.77
2023-01-25T06:26:25.695Z,28.75
2023-01-25T06:28:54.487Z,39.33
2023-01-25T06:31:22.139Z,36.53
2023-01-25T06:33:50.662Z,28.13
2023-01-25T06:36:20.203Z,28.73
2023-01-25T06:38:49.596Z,42.38
2023-01-25T06:41:17.085Z,27.77
2023-01-25T06:43:44.575Z,24.48
2023-01-25T06:46:13.580Z,20.65
2023-01-25T06:48:42.776Z,25.27
2023-01-25T06:51:11.803Z,31.35
2023-01-25T06:53:40.640Z,35.33
2023-01-25T06:56:11.738Z,31.73
2023-01-25T06:58:39.826Z,34.13
2023-01-25T07:01:10.065Z,26.98
2023-01-25T07:03:38.894Z,21.38
2023-01-25T07:06:08.814Z,21.45
2023-01-25T07:08:36.953Z,22.63
2023-01-25T07:11:06.375Z,22.05
2023-01-25T07:13:35.054Z,23.23
2023-01-25T07:16:04.517Z,20.10
2023-01-25T07:18:32.503Z,24.63
2023-01-25T07:21:05.661Z,22.27
2023-01-25T07:23:34.480Z,21.10
2023-01-25T07:26:02.642Z,19.27
2023-01-25T07:28:30.211Z,22.08
2023-01-25T07:30:57.953Z,21.55
2023-01-25T07:33:25.451Z,21.52
2023-01-25T07:35:52.922Z,21.13
2023-01-25T07:38:21.700Z,27.67
2023-01-25T07:40:52.684Z,32.42
2023-01-25T07:43:20.435Z,23.63
2023-01-25T07:45:49.555Z,21.30
2023-01-25T07:48:17.655Z,23.27
2023-01-25T07:50:49.464Z,22.58
2023-01-25T07:53:17.165Z,22.15
2023-01-25T07:55:45.953Z,18.80
2023-01-25T07:58:13.453Z,19.27
2023-01-25T08:00:41.309Z,23.25
2023-01-25T08:03:10.105Z,25.02
2023-01-25T08:05:39.438Z,21.92
2023-01-25T08:08:07.581Z,22.55
2023-01-25T08:10:35.129Z,21.25
2023-01-25T08:13:03.913Z,24.27
2023-01-25T08:15:31.434Z,20.88
2023-01-25T08:18:00.368Z,22.73
2023-01-25T08:20:27.921Z,19.48
2023-01-25T08:22:55.511Z,23.17
2023-01-25T08:25:23.187Z,21.00
2023-01-25T08:27:52.088Z,20.05
2023-01-25T08:30:21.201Z,19.60
2023-01-25T08:32:48.662Z,21.10
2023-01-25T08:35:16.338Z,21.52
2023-01-25T08:37:43.963Z,23.15
2023-01-25T08:40:13.825Z,21.67
2023-01-25T08:42:43.070Z,22.63
2023-01-25T08:45:11.551Z,19.02
2023-01-25T08:47:40.491Z,21.40
2023-01-25T08:50:09.378Z,20.23
2023-01-25T08:52:37.055Z,19.83
2023-01-25T08:55:05.214Z,18.25
2023-01-25T08:57:32.675Z,16.90
2023-01-25T09:00:00.146Z,18.00
2023-01-25T09:02:27.613Z,16.35
2023-01-25T09:04:56.427Z,16.42
2023-01-25T09:07:23.913Z,15.68
2023-01-25T09:09:51.448Z,14.70
2023-01-25T09:12:18.989Z,16.00
2023-01-25T09:14:46.473Z,15.60
2023-01-25T09:17:13.923Z,14.68
2023-01-25T09:19:42.444Z,15.95
2023-01-25T09:22:11.219Z,18.63
2023-01-25T09:24:38.720Z,15.55
2023-01-25T09:27:06.247Z,16.40
2023-01-25T09:29:33.774Z,16.90
2023-01-25T09:32:01.314Z,21.25
2023-01-25T09:34:28.866Z,18.30
2023-01-25T09:36:56.317Z,16.05
2023-01-25T09:39:25.554Z,16.35
2023-01-25T09:42:14.641Z,15.82
2023-01-25T09:44:54.111Z,14.25
2023-01-25T09:47:27.006Z,13.32
2023-01-25T09:50:19.125Z,14.45
2023-01-25T09:53:06.273Z,13.25
2023-01-25T09:55:35.328Z,15.38
2023-01-25T09:58:04.094Z,15.85
2023-01-25T10:00:33.840Z,15.13
2023-01-25T10:03:04.732Z,15.98
2023-01-25T10:05:34.113Z,16.52
2023-01-25T10:08:05.131Z,16.50
2023-01-25T10:10:37.401Z,13.88
2023-01-25T10:13:05.065Z,16.13
2023-01-25T10:15:36.922Z,14.35
2023-01-25T10:18:09.509Z,14.82
2023-01-25T10:20:40.469Z,13.52
2023-01-25T10:23:37.788Z,15.38
2023-01-25T10:26:09.347Z,16.05
2023-01-25T10:28:42.500Z,15.23
2023-01-25T10:31:18.277Z,15.70
2023-01-25T10:33:47.336Z,15.30
2023-01-25T10:36:16.887Z,17.10
2023-01-25T10:38:46.136Z,15.20
2023-01-25T10:41:19.040Z,17.17
2023-01-25T10:44:09.219Z,16.55
2023-01-25T10:46:37.172Z,17.77
2023-01-25T10:49:19.152Z,15.63
2023-01-25T10:51:46.627Z,14.88
2023-01-25T10:54:16.431Z,15.00
2023-01-25T10:56:46.005Z,15.98
2023-01-25T10:59:19.187Z,15.00
2023-01-25T11:01:46.787Z,16.80
2023-01-25T11:04:32.810Z,15.48
2023-01-25T11:07:02.515Z,16.77
2023-01-25T11:09:38.806Z,15.68
2023-01-25T11:12:18.905Z,15.40
2023-01-25T11:14:49.720Z,14.63
2023-01-25T11:17:26.741Z,14.90
2023-01-25T11:20:17.148Z,14.50
2023-01-25T11:22:52.662Z,15.05
2023-01-25T11:25:26.782Z,14.82
2023-01-25T11:28:11.425Z,14.77
2023-01-25T11:30:39.220Z,16.00
2023-01-25T11:33:11.603Z,14.52
2023-01-25T11:35:44.695Z,17.08
2023-01-25T11:40:44.217Z,15.57
2023-01-25T11:43:22.216Z,16.83
2023-01-25T11:46:08.670Z,16.25
2023-01-25T11:49:02.742Z,16.63
2023-01-25T11:51:33.492Z,17.73
2023-01-25T11:54:23.505Z,20.40
2023-01-25T11:56:56.602Z,25.08
2023-01-25T12:02:08.521Z,18.98
2023-01-25T12:04:47.182Z,23.08
2023-01-25T12:07:20.527Z,21.55
2023-01-25T12:10:04.122Z,19.98
2023-01-25T12:12:41.843Z,22.52
2023-01-25T12:15:26.979Z,23.25
2023-01-25T12:18:06.659Z,22.35
2023-01-25T12:20:43.157Z,18.65
2023-01-25T12:23:28.389Z,20.98
2023-01-25T12:26:16.685Z,20.40
2023-01-25T12:28:48.059Z,15.57
2023-01-25T12:31:20.571Z,13.52
2023-01-25T12:33:50.228Z,21.35
2023-01-25T12:36:21.264Z,21.35
2023-01-25T12:38:52.143Z,16.20
2023-01-25T12:41:27.743Z,16.55
2023-01-25T12:43:57.377Z,19.98
2023-01-25T12:46:29.895Z,21.80
2023-01-25T12:49:01.343Z,29.92
2023-01-25T12:51:34.928Z,24.77
2023-01-25T12:54:04.035Z,31.90
2023-01-25T12:56:40.690Z,25.70
2023-01-25T12:59:15.573Z,17.73
2023-01-25T13:01:47.918Z,28.83
2023-01-25T13:04:46.095Z,26.77
2023-01-25T13:07:17.481Z,23.65
2023-01-25T13:09:51.158Z,24.63
2023-01-25T13:12:18.875Z,24.23
2023-01-25T13:14:46.564Z,24.23
2023-01-25T13:17:24.585Z,14.70
2023-01-25T13:19:53.390Z,22.00
2023-01-25T13:22:58.673Z,21.25
2023-01-25T13:25:27.397Z,17.33
2023-01-25T13:28:39.353Z,23.23
2023-01-25T13:31:06.952Z,19.55
2023-01-25T13:33:36.912Z,12.52
2023-01-25T13:36:41.104Z,20.45
2023-01-25T13:39:42.311Z,23.35
2023-01-25T13:42:20.773Z,22.23
2023-01-25T13:44:51.639Z,22.02
2023-01-25T13:47:21.572Z,23.42
2023-01-25T13:49:55.020Z,23.55
2023-01-25T13:52:24.632Z,23.35
2023-01-25T13:54:55.973Z,21.52
2023-01-25T13:57:25.052Z,20.27
2023-01-25T14:00:10.898Z,19.25
2023-01-25T14:02:39.765Z,15.52
2023-01-25T14:05:18.972Z,20.27
2023-01-25T14:07:47.508Z,18.95
2023-01-25T14:10:17.414Z,20.73
2023-01-25T14:12:45.339Z,17.80
2023-01-25T14:15:21.726Z,19.75
2023-01-25T14:18:11.017Z,12.70
2023-01-25T14:20:40.086Z,16.42
2023-01-25T14:23:21.456Z,28.70
2023-01-25T14:25:49.015Z,22.38
2023-01-25T14:28:16.715Z,22.60
2023-01-25T14:30:44.505Z,21.02
2023-01-25T14:33:19.989Z,19.60
2023-01-25T14:35:55.488Z,19.05
2023-01-25T14:38:30.672Z,19.10
2023-01-25T14:41:02.231Z,18.05
2023-01-25T14:43:30.832Z,16.85
2023-01-25T14:45:58.541Z,18.20
2023-01-25T14:48:40.803Z,17.80
2023-01-25T14:51:16.933Z,17.45
2023-01-25T14:53:47.610Z,15.23
2023-01-25T14:56:32.532Z,16.75
2023-01-25T14:59:00.429Z,17.00
2023-01-25T15:01:33.563Z,15.13
2023-01-25T15:04:01.340Z,16.92
2023-01-25T15:06:30.366Z,18.95
2023-01-25T15:08:58.145Z,18.55
2023-01-25T15:11:38.839Z,19.05
2023-01-25T15:14:17.820Z,17.63
2023-01-25T15:16:45.563Z,18.55
2023-01-25T15:19:28.338Z,19.00
2023-01-25T15:21:58.537Z,18.98
2023-01-25T15:24:26.684Z,18.63
2023-01-25T15:26:55.874Z,19.23
2023-01-25T15:29:27.004Z,20.67
2023-01-25T15:31:56.163Z,22.20
2023-01-25T15:34:26.201Z,20.05
2023-01-25T15:36:53.888Z,28.27
2023-01-25T15:39:23.264Z,16.92
2023-01-25T15:41:50.765Z,20.20
2023-01-25T15:44:20.139Z,22.42
2023-01-25T15:46:50.638Z,21.35
2023-01-25T15:49:20.041Z,21.48
2023-01-25T15:51:48.685Z,21.45
2023-01-25T15:54:16.353Z,20.45
2023-01-25T15:56:46.826Z,19.55
2023-01-25T15:59:16.839Z,18.23
2023-01-25T16:01:44.755Z,18.05
2023-01-25T16:04:13.840Z,18.55
2023-01-25T16:06:43.918Z,21.92
2023-01-25T16:09:15.581Z,21.45
2023-01-25T16:11:44.651Z,19.90
2023-01-25T16:14:12.679Z,17.70
2023-01-25T16:16:43.556Z,16.70
2023-01-25T16:19:14.127Z,27.13
2023-01-25T16:21:42.133Z,17.08
2023-01-25T16:24:10.232Z,17.88
2023-01-25T16:26:39.562Z,19.73
2023-01-25T16:29:09.167Z,17.65
2023-01-25T16:31:36.729Z,17.48
2023-01-25T16:34:04.575Z,17.42
2023-01-25T16:36:34.052Z,15.68
2023-01-25T16:39:10.003Z,17.35
2023-01-25T16:41:38.032Z,15.00
2023-01-25T16:44:05.785Z,17.85
2023-01-25T16:46:34.924Z,17.13
2023-01-25T16:49:04.961Z,17.75
2023-01-25T16:51:33.432Z,17.65
2023-01-25T16:54:00.927Z,16.52
2023-01-25T16:56:30.382Z,17.63
2023-01-25T16:59:02.109Z,16.70
2023-01-25T17:01:29.729Z,17.73
2023-01-25T17:03:59.000Z,17.42
2023-01-25T17:06:28.054Z,18.80
2023-01-25T17:09:00.314Z,17.65
2023-01-25T17:11:28.329Z,17.00
2023-01-25T17:13:57.863Z,19.73
2023-01-25T17:16:26.913Z,19.15
2023-01-25T17:18:55.284Z,17.63
2023-01-25T17:21:24.573Z,17.85
2023-01-25T17:23:52.935Z,18.13
2023-01-25T17:26:21.682Z,16.85
2023-01-25T17:28:49.821Z,18.10
2023-01-25T17:31:19.448Z,16.95
2023-01-25T17:33:47.361Z,17.67
2023-01-25T17:36:15.338Z,19.58
2023-01-25T17:38:44.614Z,17.05
2023-01-25T17:41:14.167Z,14.20
2023-01-25T17:43:41.977Z,15.05
2023-01-25T17:46:13.488Z,18.67
2023-01-25T17:48:41.238Z,18.60
2023-01-25T17:51:08.773Z,17.67
2023-01-25T17:53:36.269Z,16.92
2023-01-25T17:56:06.462Z,16.83
2023-01-25T17:58:36.662Z,17.90
2023-01-25T18:01:13.778Z,17.98
2023-01-25T18:03:42.028Z,18.35
2023-01-25T18:06:09.902Z,19.88
2023-01-25T18:08:40.155Z,17.15
2023-01-25T18:11:10.232Z,17.20
2023-01-25T18:13:40.213Z,18.42
2023-01-25T18:16:09.538Z,18.90
2023-01-25T18:18:37.644Z,20.38
2023-01-25T18:21:07.732Z,18.48
2023-01-25T18:23:35.506Z,19.30
2023-01-25T18:26:05.277Z,17.08
2023-01-25T18:28:34.466Z,17.67
2023-01-25T18:31:06.057Z,19.75
2023-01-25T18:33:34.225Z,19.52
2023-01-25T18:36:03.857Z,19.67
2023-01-25T18:38:32.772Z,18.48
2023-01-25T18:41:00.823Z,20.15
2023-01-25T18:43:28.829Z,19.40
2023-01-25T18:45:59.542Z,21.33
2023-01-25T18:48:31.102Z,17.83
2023-01-25T18:50:59.531Z,16.05
2023-01-25T18:53:27.656Z,18.17
2023-01-25T18:55:59.748Z,18.35
2023-01-25T18:58:27.576Z,18.53
2023-01-25T19:01:03.826Z,19.05
2023-01-25T19:03:31.554Z,16.95
2023-01-25T19:05:59.278Z,15.00
2023-01-25T19:08:27.721Z,15.15
2023-01-25T19:11:06.427Z,15.65
2023-01-25T19:13:35.292Z,15.43
2023-01-25T19:16:06.347Z,17.27
2023-01-25T19:18:35.590Z,14.32
2023-01-25T19:21:03.690Z,15.57
2023-01-25T19:23:34.230Z,15.02
2023-01-25T19:26:01.906Z,14.85
2023-01-25T19:28:29.803Z,15.20
2023-01-25T19:30:57.794Z,16.90
2023-01-25T19:33:26.842Z,18.02
2023-01-25T19:36:01.296Z,16.33
2023-01-25T19:38:28.757Z,16.35
2023-01-25T19:40:56.269Z,17.05
2023-01-25T19:43:24.041Z,17.55
2023-01-25T19:45:51.632Z,17.00
2023-01-25T19:48:19.090Z,17.77
2023-01-25T19:50:48.466Z,17.67
2023-01-25T19:53:15.984Z,18.10
2023-01-25T19:55:43.640Z,18.92
2023-01-25T19:58:12.053Z,18.92
2023-01-25T20:00:39.789Z,19.38
2023-01-25T20:03:15.912Z,15.82
2023-01-25T20:05:44.337Z,12.48
2023-01-25T20:08:13.111Z,17.13
2023-01-25T20:10:40.877Z,26.13
2023-01-25T20:13:08.565Z,27.70
2023-01-25T20:15:36.190Z,19.98
2023-01-25T20:18:05.009Z,21.02
2023-01-25T20:20:32.807Z,20.35
2023-01-25T20:23:00.266Z,17.95
2023-01-25T20:25:29.071Z,54.53
2023-01-25T20:27:56.757Z,20.73
2023-01-25T20:30:24.244Z,18.80
2023-01-25T20:32:51.726Z,20.40
2023-01-25T20:35:19.208Z,17.17
2023-01-25T20:37:49.321Z,18.40
2023-01-25T20:40:17.726Z,16.50
2023-01-25T20:42:46.804Z,18.38
2023-01-25T20:45:16.953Z,16.70
2023-01-25T20:47:44.507Z,15.57
2023-01-25T20:50:12.405Z,16.65
2023-01-25T20:52:40.132Z,16.20
2023-01-25T20:55:08.518Z,17.90
2023-01-25T20:57:37.281Z,20.00
2023-01-25T21:00:09.358Z,16.92
2023-01-25T21:02:38.793Z,16.75
2023-01-25T21:05:06.814Z,14.65
2023-01-25T21:07:34.389Z,20.17
2023-01-25T21:10:01.866Z,19.30
2023-01-25T21:12:31.314Z,19.05
2023-01-25T21:14:59.058Z,15.20
2023-01-25T21:17:27.884Z,18.10
2023-01-25T21:19:57.959Z,17.85
2023-01-25T21:22:25.630Z,17.13
2023-01-25T21:24:53.129Z,16.95
2023-01-25T21:27:20.640Z,18.80
2023-01-25T21:29:48.137Z,16.35
2023-01-25T21:32:15.625Z,16.17
2023-01-25T21:34:44.699Z,14.93
2023-01-25T21:37:12.170Z,15.05
2023-01-25T21:39:40.042Z,17.45
2023-01-25T21:42:07.555Z,14.98
2023-01-25T21:44:52.985Z,14.77
2023-01-25T21:47:29.849Z,15.40
2023-01-25T21:50:17.687Z,15.77
2023-01-25T21:52:45.144Z,17.75
2023-01-25T21:55:12.638Z,13.18
2023-01-25T21:57:46.257Z,17.15
2023-01-25T22:00:15.912Z,16.67
2023-01-25T22:02:44.171Z,14.95
2023-01-25T22:05:13.223Z,14.52
2023-01-25T22:07:40.693Z,13.57
2023-01-25T22:10:09.324Z,15.40
2023-01-25T22:12:36.963Z,13.90
2023-01-25T22:15:05.242Z,16.00
2023-01-25T22:17:32.955Z,17.27
2023-01-25T22:20:00.455Z,14.73
2023-01-25T22:22:29.339Z,15.70
2023-01-25T22:24:56.954Z,13.52
2023-01-25T22:27:38.767Z,12.73
2023-01-25T22:30:07.761Z,14.57
2023-01-25T22:32:35.685Z,13.63
2023-01-25T22:35:03.253Z,13.35
2023-01-25T22:37:35.555Z,14.02
2023-01-25T22:40:03.430Z,11.73
2023-01-25T22:42:31.125Z,14.30
2023-01-25T22:44:58.824Z,13.60
2023-01-25T22:47:26.458Z,12.43
2023-01-25T22:49:54.129Z,11.55
2023-01-25T22:52:22.143Z,12.60
2023-01-25T22:54:51.814Z,10.13
2023-01-25T22:57:19.406Z,9.23
2023-01-25T22:59:46.925Z,8.27
2023-01-25T23:02:14.901Z,11.60
2023-01-25T23:04:42.528Z,12.15
2023-01-25T23:07:18.765Z,9.55
2023-01-25T23:09:48.214Z,11.18
2023-01-25T23:12:17.054Z,13.30
2023-01-25T23:14:54.090Z,11.60
2023-01-25T23:17:40.788Z,10.90
2023-01-25T23:20:11.234Z,10.98
2023-01-25T23:22:39.184Z,11.02
2023-01-25T23:25:08.418Z,11.50
2023-01-25T23:27:37.229Z,10.98
2023-01-25T23:30:07.121Z,11.38
2023-01-25T23:32:35.024Z,9.88
2023-01-25T23:35:02.508Z,11.80
2023-01-25T23:37:30.188Z,11.95
2023-01-25T23:39:57.819Z,11.75
2023-01-25T23:42:25.789Z,12.23
2023-01-25T23:44:54.604Z,10.32
2023-01-25T23:47:22.091Z,11.45
2023-01-25T23:49:49.578Z,10.98
2023-01-25T23:52:17.090Z,11.52
2023-01-25T23:54:44.791Z,12.35
2023-01-25T23:57:12.287Z,14.73
2023-01-25T23:59:39.782Z,10.95
